sensor_id;sensor_type;location;lat;lon;timestamp;P1;durP1;ratioP1;P2;durP2;ratioP2
64419;SDS011;50745;48.170;14.516;2022-11-23T00:01:27;3.30;;;1.92;;
64419;SDS011;50745;48.170;14.516;2022-11-23T00:11:29;2.40;;;1.90;;
64419;SDS011;50745;48.170;14.516;2022-11-23T00:21:31;1.80;;;1.70;;
64419;SDS011;50745;48.170;14.516;2022-11-23T00:31:32;2.65;;;1.90;;
64419;SDS011;50745;48.170;14.516;2022-11-23T00:41:33;2.17;;;1.80;;
64419;SDS011;50745;48.170;14.516;2022-11-23T00:51:36;2.65;;;1.92;;
64419;SDS011;50745;48.170;14.516;2022-11-23T01:01:37;2.15;;;1.70;;
64419;SDS011;50745;48.170;14.516;2022-11-23T01:11:39;1.70;;;1.60;;
64419;SDS011;50745;48.170;14.516;2022-11-23T01:21:41;1.98;;;1.70;;
64419;SDS011;50745;48.170;14.516;2022-11-23T01:31:42;1.98;;;1.67;;
64419;SDS011;50745;48.170;14.516;2022-11-23T01:41:44;1.75;;;1.65;;
64419;SDS011;50745;48.170;14.516;2022-11-23T01:51:45;1.60;;;1.50;;
64419;SDS011;50745;48.170;14.516;2022-11-23T02:01:49;1.60;;;1.50;;
64419;SDS011;50745;48.170;14.516;2022-11-23T02:11:52;1.88;;;1.60;;
64419;SDS011;50745;48.170;14.516;2022-11-23T02:21:54;1.65;;;1.55;;
64419;SDS011;50745;48.170;14.516;2022-11-23T02:31:56;1.90;;;1.60;;
64419;SDS011;50745;48.170;14.516;2022-11-23T02:41:58;2.28;;;1.60;;
64419;SDS011;50745;48.170;14.516;2022-11-23T02:52:00;2.85;;;1.65;;
64419;SDS011;50745;48.170;14.516;2022-11-23T03:02:03;1.70;;;1.60;;
64419;SDS011;50745;48.170;14.516;2022-11-23T03:12:05;1.63;;;1.50;;
64419;SDS011;50745;48.170;14.516;2022-11-23T03:22:06;1.83;;;1.60;;
64419;SDS011;50745;48.170;14.516;2022-11-23T03:32:09;1.60;;;1.50;;
64419;SDS011;50745;48.170;14.516;2022-11-23T03:42:12;1.95;;;1.60;;
64419;SDS011;50745;48.170;14.516;2022-11-23T03:52:13;1.90;;;1.70;;
64419;SDS011;50745;48.170;14.516;2022-11-23T04:02:17;2.25;;;1.80;;
64419;SDS011;50745;48.170;14.516;2022-11-23T04:12:26;1.90;;;1.70;;
64419;SDS011;50745;48.170;14.516;2022-11-23T04:22:30;1.70;;;1.60;;
64419;SDS011;50745;48.170;14.516;2022-11-23T04:32:52;1.95;;;1.70;;
64419;SDS011;50745;48.170;14.516;2022-11-23T04:42:55;1.85;;;1.70;;
64419;SDS011;50745;48.170;14.516;2022-11-23T04:52:57;2.38;;;1.80;;
64419;SDS011;50745;48.170;14.516;2022-11-23T05:03:07;2.50;;;1.88;;
64419;SDS011;50745;48.170;14.516;2022-11-23T05:23:45;2.00;;;1.80;;
64419;SDS011;50745;48.170;14.516;2022-11-23T05:33:58;1.90;;;1.70;;
64419;SDS011;50745;48.170;14.516;2022-11-23T05:44:18;2.03;;;1.70;;
64419;SDS011;50745;48.170;14.516;2022-11-23T06:05:40;2.50;;;1.90;;
64419;SDS011;50745;48.170;14.516;2022-11-23T06:15:41;2.50;;;1.70;;
64419;SDS011;50745;48.170;14.516;2022-11-23T06:25:47;1.70;;;1.60;;
64419;SDS011;50745;48.170;14.516;2022-11-23T06:36:00;2.80;;;1.85;;
64419;SDS011;50745;48.170;14.516;2022-11-23T06:46:16;3.28;;;1.92;;
64419;SDS011;50745;48.170;14.516;2022-11-23T06:56:19;2.58;;;1.75;;
64419;SDS011;50745;48.170;14.516;2022-11-23T07:06:40;1.98;;;1.70;;
64419;SDS011;50745;48.170;14.516;2022-11-23T07:16:48;4.25;;;2.90;;
64419;SDS011;50745;48.170;14.516;2022-11-23T07:26:50;3.00;;;2.10;;
64419;SDS011;50745;48.170;14.516;2022-11-23T07:36:52;2.85;;;2.15;;
64419;SDS011;50745;48.170;14.516;2022-11-23T07:47:38;3.38;;;2.30;;
64419;SDS011;50745;48.170;14.516;2022-11-23T07:57:40;5.32;;;2.30;;
64419;SDS011;50745;48.170;14.516;2022-11-23T08:07:42;5.03;;;3.90;;
64419;SDS011;50745;48.170;14.516;2022-11-23T08:17:43;3.88;;;2.80;;
64419;SDS011;50745;48.170;14.516;2022-11-23T08:27:44;3.90;;;2.40;;
64419;SDS011;50745;48.170;14.516;2022-11-23T08:37:46;3.75;;;2.20;;
64419;SDS011;50745;48.170;14.516;2022-11-23T08:47:47;2.83;;;2.10;;
64419;SDS011;50745;48.170;14.516;2022-11-23T08:58:21;3.70;;;2.20;;
64419;SDS011;50745;48.170;14.516;2022-11-23T09:08:23;3.30;;;2.20;;
64419;SDS011;50745;48.170;14.516;2022-11-23T09:18:24;4.40;;;2.40;;
64419;SDS011;50745;48.170;14.516;2022-11-23T09:28:26;3.17;;;2.25;;
64419;SDS011;50745;48.170;14.516;2022-11-23T09:38:30;3.23;;;2.20;;
64419;SDS011;50745;48.170;14.516;2022-11-23T09:58:35;3.90;;;2.40;;
64419;SDS011;50745;48.170;14.516;2022-11-23T10:08:59;2.83;;;2.20;;
64419;SDS011;50745;48.170;14.516;2022-11-23T10:19:04;2.70;;;2.20;;
64419;SDS011;50745;48.170;14.516;2022-11-23T10:29:51;3.42;;;2.45;;
64419;SDS011;50745;48.170;14.516;2022-11-23T10:39:34;3.30;;;2.40;;
64419;SDS011;50745;48.170;14.516;2022-11-23T10:49:35;4.18;;;2.53;;
64419;SDS011;50745;48.170;14.516;2022-11-23T10:59:37;3.40;;;2.15;;
64419;SDS011;50745;48.170;14.516;2022-11-23T11:09:39;3.65;;;2.63;;
64419;SDS011;50745;48.170;14.516;2022-11-23T11:19:40;3.05;;;2.22;;
64419;SDS011;50745;48.170;14.516;2022-11-23T11:49:51;3.10;;;2.30;;
64419;SDS011;50745;48.170;14.516;2022-11-23T11:59:57;4.63;;;2.60;;
64419;SDS011;50745;48.170;14.516;2022-11-23T12:10:23;3.53;;;2.50;;
64419;SDS011;50745;48.170;14.516;2022-11-23T13:00:51;4.43;;;3.00;;
64419;SDS011;50745;48.170;14.516;2022-11-23T13:10:57;3.70;;;2.80;;
64419;SDS011;50745;48.170;14.516;2022-11-23T13:32:52;4.47;;;3.20;;
64419;SDS011;50745;48.170;14.516;2022-11-23T13:42:56;5.15;;;3.22;;
64419;SDS011;50745;48.170;14.516;2022-11-23T14:13:36;5.07;;;3.80;;
64419;SDS011;50745;48.170;14.516;2022-11-23T14:34:00;4.50;;;3.60;;
64419;SDS011;50745;48.170;14.516;2022-11-23T14:44:04;4.47;;;3.70;;
64419;SDS011;50745;48.170;14.516;2022-11-23T14:54:07;5.72;;;3.80;;
64419;SDS011;50745;48.170;14.516;2022-11-23T15:04:32;4.80;;;3.60;;
64419;SDS011;50745;48.170;14.516;2022-11-23T15:14:41;4.40;;;3.40;;
64419;SDS011;50745;48.170;14.516;2022-11-23T15:24:52;4.50;;;3.45;;
64419;SDS011;50745;48.170;14.516;2022-11-23T15:34:54;4.85;;;3.55;;
64419;SDS011;50745;48.170;14.516;2022-11-23T15:44:56;4.40;;;3.42;;
64419;SDS011;50745;48.170;14.516;2022-11-23T15:55:00;4.95;;;3.72;;
64419;SDS011;50745;48.170;14.516;2022-11-23T16:25:26;4.45;;;3.67;;
64419;SDS011;50745;48.170;14.516;2022-11-23T16:35:28;4.35;;;3.50;;
64419;SDS011;50745;48.170;14.516;2022-11-23T16:45:29;4.72;;;3.70;;
64419;SDS011;50745;48.170;14.516;2022-11-23T16:55:39;5.15;;;3.95;;
64419;SDS011;50745;48.170;14.516;2022-11-23T17:05:40;4.60;;;3.60;;
64419;SDS011;50745;48.170;14.516;2022-11-23T17:15:51;5.10;;;3.80;;
64419;SDS011;50745;48.170;14.516;2022-11-23T17:25:53;4.50;;;3.50;;
64419;SDS011;50745;48.170;14.516;2022-11-23T17:35:55;4.93;;;3.83;;
64419;SDS011;50745;48.170;14.516;2022-11-23T17:46:05;5.32;;;3.63;;
64419;SDS011;50745;48.170;14.516;2022-11-23T17:56:47;5.88;;;4.03;;
64419;SDS011;50745;48.170;14.516;2022-11-23T18:06:49;6.88;;;5.35;;
64419;SDS011;50745;48.170;14.516;2022-11-23T18:16:54;6.32;;;4.75;;
64419;SDS011;50745;48.170;14.516;2022-11-23T18:26:59;5.47;;;4.45;;
64419;SDS011;50745;48.170;14.516;2022-11-23T18:37:04;5.20;;;4.30;;
64419;SDS011;50745;48.170;14.516;2022-11-23T18:58:38;5.43;;;4.22;;
64419;SDS011;50745;48.170;14.516;2022-11-23T19:18:43;4.63;;;3.75;;
64419;SDS011;50745;48.170;14.516;2022-11-23T19:28:45;4.47;;;3.47;;
64419;SDS011;50745;48.170;14.516;2022-11-23T19:38:47;4.53;;;3.40;;
64419;SDS011;50745;48.170;14.516;2022-11-23T19:49:25;4.63;;;3.35;;
64419;SDS011;50745;48.170;14.516;2022-11-23T19:59:26;4.43;;;3.20;;
64419;SDS011;50745;48.170;14.516;2022-11-23T20:09:28;4.10;;;3.22;;
64419;SDS011;50745;48.170;14.516;2022-11-23T20:19:30;4.82;;;3.20;;
64419;SDS011;50745;48.170;14.516;2022-11-23T20:29:31;4.30;;;3.10;;
64419;SDS011;50745;48.170;14.516;2022-11-23T20:40:19;4.72;;;3.20;;
64419;SDS011;50745;48.170;14.516;2022-11-23T20:50:21;4.05;;;3.00;;
64419;SDS011;50745;48.170;14.516;2022-11-23T21:00:25;3.77;;;2.97;;
64419;SDS011;50745;48.170;14.516;2022-11-23T21:10:27;3.88;;;2.78;;
64419;SDS011;50745;48.170;14.516;2022-11-23T21:20:47;3.70;;;2.97;;
64419;SDS011;50745;48.170;14.516;2022-11-23T21:30:48;3.95;;;3.00;;
64419;SDS011;50745;48.170;14.516;2022-11-23T21:40:54;4.35;;;3.10;;
64419;SDS011;50745;48.170;14.516;2022-11-23T21:51:04;3.50;;;2.80;;
64419;SDS011;50745;48.170;14.516;2022-11-23T22:01:06;4.38;;;3.47;;
64419;SDS011;50745;48.170;14.516;2022-11-23T22:11:09;3.72;;;2.90;;
64419;SDS011;50745;48.170;14.516;2022-11-23T22:21:11;3.95;;;3.00;;
64419;SDS011;50745;48.170;14.516;2022-11-23T22:31:14;4.38;;;3.25;;
64419;SDS011;50745;48.170;14.516;2022-11-23T22:41:15;4.50;;;3.30;;
64419;SDS011;50745;48.170;14.516;2022-11-23T22:51:21;6.15;;;3.00;;
64419;SDS011;50745;48.170;14.516;2022-11-23T23:01:26;3.60;;;2.72;;
64419;SDS011;50745;48.170;14.516;2022-11-23T23:11:29;3.65;;;2.83;;
64419;SDS011;50745;48.170;14.516;2022-11-23T23:21:31;3.20;;;2.40;;
64419;SDS011;50745;48.170;14.516;2022-11-23T23:31:32;3.90;;;2.67;;
64419;SDS011;50745;48.170;14.516;2022-11-23T23:41:36;3.60;;;2.80;;
64419;SDS011;50745;48.170;14.516;2022-11-23T23:51:37;3.17;;;2.40;;
